Flight Track Log - Related Links

Times and Time Zones

All times are in EST time to prevent confusion due to time zone crossing. See the SWA305 flight status page for this flight to view local times or setup timezone preferences in your user account.

Time Position Orientation Groundspeed Altitude Reporting Facility
EST Latitude Longitude Course Direction KTS MPH feet Rate Location/Type
Sun 02:53:55 PM 42.7478 -73.8222 213° Southwest 149 171 2,100  Level Boston Center
Sun 02:54:01 PM 42.7453 -73.8244 213° Southwest 149 171 2,200 1,385 Climbing Boston Center
Sun 02:54:08 PM 42.7456 -73.8272 278° West 129 148 2,400 3,940 Climbing Boston Center
Sun 02:55:08 PM 42.7372 -73.8939 260° West 180 207 6,600 4,562 Climbing Boston Center
Sun 02:56:09 PM 42.7217 -73.9678 254° West 191 220 11,600 4,279 Climbing Boston Center
Sun 02:57:10 PM 42.7058 -74.0578 257° West 249 287 15,300 3,917 Climbing Boston Center
Sun 02:58:10 PM 42.6553 -74.1436 231° Southwest 289 333 19,500 3,124 Climbing Boston Center
Sun 02:59:11 PM 42.5811 -74.1856 203° Southwest 340 391 21,600 2,516 Climbing Boston Center
Sun 03:00:14 PM 42.4814 -74.1081 150° Southeast 409 471 24,700 1,672 Climbing Boston Center
Sun 03:01:13 PM 42.3789 -74.0342 152° Southeast 419 482 25,000 248 Climbing Boston Center
Sun 03:02:15 PM 42.2681 -73.9567 153° Southeast 446 513 25,200 590 Climbing Boston Center
Sun 03:03:15 PM 42.1572 -73.8783 152° Southeast 451 519 26,200 1,355 Climbing Boston Center
Sun 03:04:19 PM 42.0367 -73.8464 169° South 466 536 28,000 871 Climbing Boston Center
Sun 03:05:19 PM 41.9194 -73.9011 199° South 453 521 28,000  Level Boston Center
Sun 03:06:19 PM 41.7908 -73.9581 198° South 446 513 28,000  Level Boston Center
Sun 03:07:20 PM 41.6756 -74.0097 199° South 440 506 28,000  Level Boston Center
Sun 03:08:22 PM 41.5594 -74.0619 199° South 443 510 28,000  Level Boston Center
Sun 03:09:23 PM 41.4428 -74.1131 198° South 442 509 28,000  Level Boston Center
Sun 03:10:24 PM 41.3247 -74.1656 198° South 448 516 28,000  Level Boston Center
Sun 03:11:24 PM 41.1831 -74.2283 198° South 448 516 28,000  Level Boston Center
Sun 03:12:28 PM 41.0572 -74.2822 198° South 450 518 28,000  Level New York Center
Sun 03:13:29 PM 40.9411 -74.3339 199° South 450 518 28,000  Level New York Center
Sun 03:14:29 PM 40.8250 -74.3853 199° South 450 518 28,000  Level New York Center
Sun 03:15:29 PM 40.7469 -74.4881 225° Southwest 421 484 28,000  Level New York Center
Sun 03:16:29 PM 40.6725 -74.5961 228° Southwest 404 465 28,000  Level New York Center
Sun 03:17:29 PM 40.5961 -74.7067 228° Southwest 404 465 28,000 -350 Level New York Center
Sun 03:18:29 PM 40.5194 -74.8142 227° Southwest 404 465 27,300 -850 Descending New York Center
Sun 03:19:29 PM 40.4447 -74.9244 228° Southwest 409 471 26,300 -1,050 Descending New York Center
Sun 03:20:29 PM 40.3700 -75.0317 228° Southwest 409 471 25,200 -1,050 Descending New York Center
Sun 03:21:29 PM 40.2997 -75.1333 228° Southwest 399 459 24,200 -1,000 Descending New York Center
Sun 03:22:29 PM 40.2292 -75.2350 228° Southwest 394 453 23,200 -1,100 Descending New York Center
Sun 03:23:29 PM 40.1675 -75.3233 228° Southwest 388 447 22,000 -1,600 Descending New York Center
Sun 03:24:29 PM 40.1011 -75.4167 227° Southwest 370 426 20,000 -1,950 Descending New York Center
Sun 03:25:29 PM 40.0286 -75.5150 226° Southwest 356 410 18,100 -1,000 Descending New York Center
Sun 03:26:29 PM 39.9644 -75.6028 226° Southwest 340 391 18,000 -50 Descending New York Center
Sun 03:27:29 PM 39.9089 -75.6856 229° Southwest 340 391 18,000  Level New York Center
Sun 03:28:29 PM 39.8544 -75.7925 236° Southwest 335 386 18,000 -1,354 Level New York Center
Sun 03:30:44 PM 39.7333 -76.0167 235° Southwest 314 361 13,600 -1,841 Descending Potomac TRACON
Sun 03:31:38 PM 39.7000 -76.0833 237° Southwest 300 345 12,200 -1,211 Descending Potomac TRACON
Sun 03:32:38 PM 39.6500 -76.1833 237° Southwest 279 321 11,300 -1,091 Descending Potomac TRACON
Sun 03:33:39 PM 39.6167 -76.2500 237° Southwest 276 318 10,000 -1,357 Descending Potomac TRACON
Sun 03:34:33 PM 39.5667 -76.3167 226° Southwest 277 319 8,700 -1,474 Descending Potomac TRACON
Sun 03:35:33 PM 39.5000 -76.3667 210° Southwest 275 316 7,200 -1,250 Descending Potomac TRACON
Sun 03:36:33 PM 39.4500 -76.4333 226° Southwest 267 307 6,200 -1,000 Descending Potomac TRACON
Sun 03:37:33 PM 39.3833 -76.4833 210° Southwest 264 304 5,200 -1,148 Descending Potomac TRACON
Sun 03:38:28 PM 39.3167 -76.5000 191° South 272 313 4,000 -1,357 Descending Potomac TRACON
Sun 03:39:28 PM 39.2500 -76.5333 201° Southwest 262 302 2,600 -1,000 Descending Potomac TRACON
Sun 03:40:28 PM 39.1833 -76.5667 201° Southwest 224 258 2,000 -600 Descending Potomac TRACON
Sun 03:41:28 PM 39.1333 -76.6000 207° Southwest 184 212 1,400 -550 Descending Potomac TRACON
Sun 03:42:28 PM 39.1333 -76.6333 270° West 114 131 900 -574 Descending Potomac TRACON
Sun 03:43:23 PM 39.1500 -76.6500 322° Northwest 113 130 300 -655 Descending Potomac TRACON

Login

Don't have an account? Register now (free) for customized features, flight alerts, and more!